Terminal Aerodrome Forecast
Issued by NWS Duluth, MN

Home | Current Version | Previous Version | Text Only | Print | Product List | Glossary On
Versions: 1 2 3 4 5 6 7 8 9 10 11 12 13 14 15 16 17 18 19 20 21 22 23 24 25 26 27 28 29
000
FTUS43 KDLH 052345
TAFINL
TAF
KINL 052345Z 0600/0624 29007KT P6SM VCTS FEW035 BKN050CB
     FM060200 30004KT 4SM BR VCSH OVC035
     FM060900 31005KT P6SM SCT040 SCT250
     FM061300 33008KT P6SM OVC060
     FM061900 34011G17KT P6SM OVC050
     FM062100 34012G19KT P6SM OVC100
     FM062200 34012G19KT P6SM SCT250=

USA.gov is the U.S. government's official web portal to all federal, state and local government web resources and services.